sensor_id;sensor_type;location;lat;lon;timestamp;temperature;humidity
33139;DHT22;19501;50.948;5.316;2024-03-02T00:00:20;8.00;99.90
33139;DHT22;19501;50.948;5.316;2024-03-02T00:02:48;7.70;99.90
33139;DHT22;19501;50.948;5.316;2024-03-02T00:05:19;7.60;99.90
33139;DHT22;19501;50.948;5.316;2024-03-02T00:07:53;7.40;99.90
33139;DHT22;19501;50.948;5.316;2024-03-02T00:10:21;7.30;99.90
33139;DHT22;19501;50.948;5.316;2024-03-02T00:12:50;7.20;99.90
33139;DHT22;19501;50.948;5.316;2024-03-02T00:18:03;7.20;99.90
33139;DHT22;19501;50.948;5.316;2024-03-02T00:20:30;7.20;99.90
33139;DHT22;19501;50.948;5.316;2024-03-02T00:23:03;7.20;99.90
33139;DHT22;19501;50.948;5.316;2024-03-02T00:25:49;7.30;99.90
33139;DHT22;19501;50.948;5.316;2024-03-02T00:28:19;7.30;99.90
33139;DHT22;19501;50.948;5.316;2024-03-02T00:33:25;7.40;99.90
33139;DHT22;19501;50.948;5.316;2024-03-02T00:35:54;7.40;99.90
33139;DHT22;19501;50.948;5.316;2024-03-02T00:38:19;7.40;99.90
33139;DHT22;19501;50.948;5.316;2024-03-02T00:40:46;7.50;99.90
33139;DHT22;19501;50.948;5.316;2024-03-02T00:46:15;7.50;99.90
33139;DHT22;19501;50.948;5.316;2024-03-02T00:48:51;7.60;99.90
33139;DHT22;19501;50.948;5.316;2024-03-02T00:51:18;7.60;99.90
33139;DHT22;19501;50.948;5.316;2024-03-02T00:53:44;7.60;99.90
33139;DHT22;19501;50.948;5.316;2024-03-02T00:56:10;7.70;99.90
33139;DHT22;19501;50.948;5.316;2024-03-02T00:58:37;7.70;99.90
33139;DHT22;19501;50.948;5.316;2024-03-02T01:01:05;7.70;99.90
33139;DHT22;19501;50.948;5.316;2024-03-02T01:03:32;7.70;99.90
33139;DHT22;19501;50.948;5.316;2024-03-02T01:05:58;7.70;99.90
33139;DHT22;19501;50.948;5.316;2024-03-02T01:08:24;7.70;99.90
33139;DHT22;19501;50.948;5.316;2024-03-02T01:10:50;7.70;99.90
33139;DHT22;19501;50.948;5.316;2024-03-02T01:13:15;7.80;99.90
33139;DHT22;19501;50.948;5.316;2024-03-02T01:15:41;7.80;99.90
33139;DHT22;19501;50.948;5.316;2024-03-02T01:18:07;7.90;99.90
33139;DHT22;19501;50.948;5.316;2024-03-02T01:20:33;8.00;99.90
33139;DHT22;19501;50.948;5.316;2024-03-02T01:23:01;7.80;99.90
33139;DHT22;19501;50.948;5.316;2024-03-02T01:25:27;7.70;99.90
33139;DHT22;19501;50.948;5.316;2024-03-02T01:27:52;7.70;99.90
33139;DHT22;19501;50.948;5.316;2024-03-02T01:30:18;7.70;99.90
33139;DHT22;19501;50.948;5.316;2024-03-02T01:32:44;7.60;99.90
33139;DHT22;19501;50.948;5.316;2024-03-02T01:35:10;7.60;99.90
33139;DHT22;19501;50.948;5.316;2024-03-02T01:37:35;7.60;99.90
33139;DHT22;19501;50.948;5.316;2024-03-02T01:40:01;7.60;99.90
33139;DHT22;19501;50.948;5.316;2024-03-02T01:42:33;7.60;99.90
33139;DHT22;19501;50.948;5.316;2024-03-02T01:45:00;7.50;99.90
33139;DHT22;19501;50.948;5.316;2024-03-02T01:47:25;7.50;99.90
33139;DHT22;19501;50.948;5.316;2024-03-02T01:49:51;7.50;99.90
33139;DHT22;19501;50.948;5.316;2024-03-02T01:52:16;7.50;99.90
33139;DHT22;19501;50.948;5.316;2024-03-02T01:54:44;7.40;99.90
33139;DHT22;19501;50.948;5.316;2024-03-02T01:57:10;7.50;99.90
33139;DHT22;19501;50.948;5.316;2024-03-02T01:59:36;7.50;99.90
33139;DHT22;19501;50.948;5.316;2024-03-02T02:02:01;7.50;99.90
33139;DHT22;19501;50.948;5.316;2024-03-02T02:04:27;7.50;99.90
33139;DHT22;19501;50.948;5.316;2024-03-02T02:06:53;7.40;99.90
33139;DHT22;19501;50.948;5.316;2024-03-02T02:09:19;7.50;99.90
33139;DHT22;19501;50.948;5.316;2024-03-02T02:11:45;7.60;99.90
33139;DHT22;19501;50.948;5.316;2024-03-02T02:14:11;7.60;99.90
33139;DHT22;19501;50.948;5.316;2024-03-02T02:16:36;7.70;99.90
33139;DHT22;19501;50.948;5.316;2024-03-02T02:19:02;7.70;99.90
33139;DHT22;19501;50.948;5.316;2024-03-02T02:21:28;7.70;99.90
33139;DHT22;19501;50.948;5.316;2024-03-02T02:23:54;7.70;99.90
33139;DHT22;19501;50.948;5.316;2024-03-02T02:26:19;7.70;99.90
33139;DHT22;19501;50.948;5.316;2024-03-02T02:28:45;7.70;99.90
33139;DHT22;19501;50.948;5.316;2024-03-02T02:31:14;7.60;99.90
33139;DHT22;19501;50.948;5.316;2024-03-02T02:33:42;7.60;99.90
33139;DHT22;19501;50.948;5.316;2024-03-02T02:36:08;7.60;99.90
33139;DHT22;19501;50.948;5.316;2024-03-02T02:38:46;7.60;99.90
33139;DHT22;19501;50.948;5.316;2024-03-02T02:41:13;7.60;99.90
33139;DHT22;19501;50.948;5.316;2024-03-02T02:43:39;7.60;99.90
33139;DHT22;19501;50.948;5.316;2024-03-02T02:46:07;7.60;99.90
33139;DHT22;19501;50.948;5.316;2024-03-02T02:48:33;7.60;99.90
33139;DHT22;19501;50.948;5.316;2024-03-02T02:50:58;7.50;99.90
33139;DHT22;19501;50.948;5.316;2024-03-02T02:53:24;7.50;99.90
33139;DHT22;19501;50.948;5.316;2024-03-02T02:55:49;7.50;99.90
33139;DHT22;19501;50.948;5.316;2024-03-02T02:58:15;7.50;99.90
33139;DHT22;19501;50.948;5.316;2024-03-02T03:00:41;7.50;99.90
33139;DHT22;19501;50.948;5.316;2024-03-02T03:03:09;7.50;99.90
33139;DHT22;19501;50.948;5.316;2024-03-02T03:05:34;7.60;99.90
33139;DHT22;19501;50.948;5.316;2024-03-02T03:08:00;7.50;99.90
33139;DHT22;19501;50.948;5.316;2024-03-02T03:10:25;7.50;99.90
33139;DHT22;19501;50.948;5.316;2024-03-02T03:12:53;7.50;99.90
33139;DHT22;19501;50.948;5.316;2024-03-02T03:15:18;7.50;99.90
33139;DHT22;19501;50.948;5.316;2024-03-02T03:17:44;7.50;99.90
33139;DHT22;19501;50.948;5.316;2024-03-02T03:20:11;7.60;99.90
33139;DHT22;19501;50.948;5.316;2024-03-02T03:22:38;7.60;99.90
33139;DHT22;19501;50.948;5.316;2024-03-02T03:25:04;7.60;99.90
33139;DHT22;19501;50.948;5.316;2024-03-02T03:27:33;7.60;99.90
33139;DHT22;19501;50.948;5.316;2024-03-02T03:30:01;7.60;99.90
33139;DHT22;19501;50.948;5.316;2024-03-02T03:32:27;7.70;99.90
33139;DHT22;19501;50.948;5.316;2024-03-02T03:34:53;7.60;99.90
33139;DHT22;19501;50.948;5.316;2024-03-02T03:37:19;7.60;99.90
33139;DHT22;19501;50.948;5.316;2024-03-02T03:39:45;7.60;99.90
33139;DHT22;19501;50.948;5.316;2024-03-02T03:42:11;7.50;99.90
33139;DHT22;19501;50.948;5.316;2024-03-02T03:44:36;7.50;99.90
33139;DHT22;19501;50.948;5.316;2024-03-02T03:47:02;7.50;99.90
33139;DHT22;19501;50.948;5.316;2024-03-02T03:49:28;7.50;99.90
33139;DHT22;19501;50.948;5.316;2024-03-02T03:51:53;7.60;99.90
33139;DHT22;19501;50.948;5.316;2024-03-02T03:54:19;7.60;99.90
33139;DHT22;19501;50.948;5.316;2024-03-02T03:56:45;7.70;99.90
33139;DHT22;19501;50.948;5.316;2024-03-02T03:59:10;7.60;99.90
33139;DHT22;19501;50.948;5.316;2024-03-02T04:01:37;7.60;99.90
33139;DHT22;19501;50.948;5.316;2024-03-02T04:04:02;7.60;99.90
33139;DHT22;19501;50.948;5.316;2024-03-02T04:06:29;7.60;99.90
33139;DHT22;19501;50.948;5.316;2024-03-02T04:08:55;7.60;99.90
33139;DHT22;19501;50.948;5.316;2024-03-02T04:11:20;7.60;99.90
33139;DHT22;19501;50.948;5.316;2024-03-02T04:13:48;7.70;99.90
33139;DHT22;19501;50.948;5.316;2024-03-02T04:16:14;7.80;99.90
33139;DHT22;19501;50.948;5.316;2024-03-02T04:18:40;7.60;99.90
33139;DHT22;19501;50.948;5.316;2024-03-02T04:21:08;7.60;99.90
33139;DHT22;19501;50.948;5.316;2024-03-02T04:23:33;7.50;99.90
33139;DHT22;19501;50.948;5.316;2024-03-02T04:25:59;7.40;99.90
33139;DHT22;19501;50.948;5.316;2024-03-02T04:28:25;7.30;99.90
33139;DHT22;19501;50.948;5.316;2024-03-02T04:30:50;7.30;99.90
33139;DHT22;19501;50.948;5.316;2024-03-02T04:33:16;7.30;99.90
33139;DHT22;19501;50.948;5.316;2024-03-02T04:35:41;7.30;99.90
33139;DHT22;19501;50.948;5.316;2024-03-02T04:38:07;7.30;99.90
33139;DHT22;19501;50.948;5.316;2024-03-02T04:40:33;7.20;99.90
33139;DHT22;19501;50.948;5.316;2024-03-02T04:43:00;7.20;99.90
33139;DHT22;19501;50.948;5.316;2024-03-02T04:45:26;7.30;99.90
33139;DHT22;19501;50.948;5.316;2024-03-02T04:47:52;7.30;99.90
33139;DHT22;19501;50.948;5.316;2024-03-02T04:50:17;7.40;99.90
33139;DHT22;19501;50.948;5.316;2024-03-02T04:52:44;7.40;99.90
33139;DHT22;19501;50.948;5.316;2024-03-02T04:55:09;7.30;99.90
33139;DHT22;19501;50.948;5.316;2024-03-02T04:57:42;7.30;99.90
33139;DHT22;19501;50.948;5.316;2024-03-02T05:00:08;7.20;99.90
33139;DHT22;19501;50.948;5.316;2024-03-02T05:02:37;7.10;99.90
33139;DHT22;19501;50.948;5.316;2024-03-02T05:05:02;7.00;99.90
33139;DHT22;19501;50.948;5.316;2024-03-02T05:07:28;7.00;99.90
33139;DHT22;19501;50.948;5.316;2024-03-02T05:09:54;6.90;99.90
33139;DHT22;19501;50.948;5.316;2024-03-02T05:12:19;6.90;99.90
33139;DHT22;19501;50.948;5.316;2024-03-02T05:15:04;6.80;99.90
33139;DHT22;19501;50.948;5.316;2024-03-02T05:17:29;6.80;99.90
33139;DHT22;19501;50.948;5.316;2024-03-02T05:19:55;6.80;99.90
33139;DHT22;19501;50.948;5.316;2024-03-02T05:22:21;6.80;99.90
33139;DHT22;19501;50.948;5.316;2024-03-02T05:24:46;6.70;99.90
33139;DHT22;19501;50.948;5.316;2024-03-02T05:27:12;6.80;99.90
33139;DHT22;19501;50.948;5.316;2024-03-02T05:29:38;6.80;99.90
33139;DHT22;19501;50.948;5.316;2024-03-02T05:32:03;6.80;99.90
33139;DHT22;19501;50.948;5.316;2024-03-02T05:34:29;6.80;99.90
33139;DHT22;19501;50.948;5.316;2024-03-02T05:36:58;6.70;99.90
33139;DHT22;19501;50.948;5.316;2024-03-02T05:39:24;6.70;99.90
33139;DHT22;19501;50.948;5.316;2024-03-02T05:41:49;6.60;99.90
33139;DHT22;19501;50.948;5.316;2024-03-02T05:44:15;6.60;99.90
33139;DHT22;19501;50.948;5.316;2024-03-02T05:46:41;6.60;99.90
33139;DHT22;19501;50.948;5.316;2024-03-02T05:49:07;6.50;99.90
33139;DHT22;19501;50.948;5.316;2024-03-02T05:51:33;6.50;99.90
33139;DHT22;19501;50.948;5.316;2024-03-02T05:53:59;6.50;99.90
33139;DHT22;19501;50.948;5.316;2024-03-02T05:56:24;6.60;99.90
33139;DHT22;19501;50.948;5.316;2024-03-02T05:58:52;6.70;99.90
33139;DHT22;19501;50.948;5.316;2024-03-02T06:01:44;6.80;99.90
33139;DHT22;19501;50.948;5.316;2024-03-02T06:04:12;6.70;99.90
33139;DHT22;19501;50.948;5.316;2024-03-02T06:06:37;6.70;99.90
33139;DHT22;19501;50.948;5.316;2024-03-02T06:09:04;6.60;99.90
33139;DHT22;19501;50.948;5.316;2024-03-02T06:11:39;6.60;99.90
33139;DHT22;19501;50.948;5.316;2024-03-02T06:14:07;6.60;99.90
33139;DHT22;19501;50.948;5.316;2024-03-02T06:16:33;6.60;99.90
33139;DHT22;19501;50.948;5.316;2024-03-02T06:18:59;6.50;99.90
33139;DHT22;19501;50.948;5.316;2024-03-02T06:21:25;6.60;99.90
33139;DHT22;19501;50.948;5.316;2024-03-02T06:23:50;6.60;99.90
33139;DHT22;19501;50.948;5.316;2024-03-02T06:26:19;6.60;99.90
33139;DHT22;19501;50.948;5.316;2024-03-02T06:28:45;6.60;99.90
33139;DHT22;19501;50.948;5.316;2024-03-02T06:31:10;6.60;99.90
33139;DHT22;19501;50.948;5.316;2024-03-02T06:33:36;6.60;99.90
33139;DHT22;19501;50.948;5.316;2024-03-02T06:36:03;6.70;99.90
33139;DHT22;19501;50.948;5.316;2024-03-02T06:38:29;6.70;99.90
33139;DHT22;19501;50.948;5.316;2024-03-02T06:40:57;6.80;99.90
33139;DHT22;19501;50.948;5.316;2024-03-02T06:43:23;6.70;99.90
33139;DHT22;19501;50.948;5.316;2024-03-02T06:45:49;6.70;99.90
33139;DHT22;19501;50.948;5.316;2024-03-02T06:48:16;6.80;99.90
33139;DHT22;19501;50.948;5.316;2024-03-02T06:50:48;6.70;99.90
33139;DHT22;19501;50.948;5.316;2024-03-02T06:53:14;6.70;99.90
33139;DHT22;19501;50.948;5.316;2024-03-02T06:55:43;6.70;99.90
33139;DHT22;19501;50.948;5.316;2024-03-02T06:58:10;6.70;99.90
33139;DHT22;19501;50.948;5.316;2024-03-02T07:00:36;6.70;99.90
33139;DHT22;19501;50.948;5.316;2024-03-02T07:03:02;6.70;99.90
33139;DHT22;19501;50.948;5.316;2024-03-02T07:05:27;6.80;99.90
33139;DHT22;19501;50.948;5.316;2024-03-02T07:07:53;6.80;99.90
33139;DHT22;19501;50.948;5.316;2024-03-02T07:10:19;6.80;99.90
33139;DHT22;19501;50.948;5.316;2024-03-02T07:12:44;6.90;99.90
33139;DHT22;19501;50.948;5.316;2024-03-02T07:15:10;6.90;99.90
33139;DHT22;19501;50.948;5.316;2024-03-02T07:17:54;6.90;99.90
33139;DHT22;19501;50.948;5.316;2024-03-02T07:20:19;6.90;99.90
33139;DHT22;19501;50.948;5.316;2024-03-02T07:22:45;6.80;99.90
33139;DHT22;19501;50.948;5.316;2024-03-02T07:25:11;6.80;99.90
33139;DHT22;19501;50.948;5.316;2024-03-02T07:27:37;6.80;99.90
33139;DHT22;19501;50.948;5.316;2024-03-02T07:30:03;6.80;99.90
33139;DHT22;19501;50.948;5.316;2024-03-02T07:32:29;6.90;99.90
33139;DHT22;19501;50.948;5.316;2024-03-02T07:34:55;7.00;99.90
33139;DHT22;19501;50.948;5.316;2024-03-02T07:37:21;7.00;99.90
33139;DHT22;19501;50.948;5.316;2024-03-02T07:39:47;7.00;99.90
33139;DHT22;19501;50.948;5.316;2024-03-02T07:42:13;7.00;99.90
33139;DHT22;19501;50.948;5.316;2024-03-02T07:44:39;7.10;99.90
33139;DHT22;19501;50.948;5.316;2024-03-02T07:47:05;7.20;99.90
33139;DHT22;19501;50.948;5.316;2024-03-02T07:49:30;7.10;99.90
33139;DHT22;19501;50.948;5.316;2024-03-02T07:51:56;7.20;99.90
33139;DHT22;19501;50.948;5.316;2024-03-02T07:54:21;7.30;99.90
33139;DHT22;19501;50.948;5.316;2024-03-02T07:56:47;7.40;99.90
33139;DHT22;19501;50.948;5.316;2024-03-02T07:59:15;7.50;99.90
33139;DHT22;19501;50.948;5.316;2024-03-02T08:01:41;7.50;99.90
33139;DHT22;19501;50.948;5.316;2024-03-02T08:04:07;7.60;99.90
33139;DHT22;19501;50.948;5.316;2024-03-02T08:06:33;7.60;99.90
33139;DHT22;19501;50.948;5.316;2024-03-02T08:08:59;7.80;99.90
33139;DHT22;19501;50.948;5.316;2024-03-02T08:11:26;8.00;99.90
33139;DHT22;19501;50.948;5.316;2024-03-02T08:13:53;8.10;99.90
33139;DHT22;19501;50.948;5.316;2024-03-02T08:16:23;8.10;99.90
33139;DHT22;19501;50.948;5.316;2024-03-02T08:18:52;8.20;99.90
33139;DHT22;19501;50.948;5.316;2024-03-02T08:21:18;8.10;99.90
33139;DHT22;19501;50.948;5.316;2024-03-02T08:23:47;8.10;99.90
33139;DHT22;19501;50.948;5.316;2024-03-02T08:26:12;8.20;99.90
33139;DHT22;19501;50.948;5.316;2024-03-02T08:28:41;8.20;99.90
33139;DHT22;19501;50.948;5.316;2024-03-02T08:31:07;8.30;99.90
33139;DHT22;19501;50.948;5.316;2024-03-02T08:33:33;8.30;99.90
33139;DHT22;19501;50.948;5.316;2024-03-02T08:35:59;8.30;99.90
33139;DHT22;19501;50.948;5.316;2024-03-02T08:38:25;8.30;99.90
33139;DHT22;19501;50.948;5.316;2024-03-02T08:40:51;8.40;99.90
33139;DHT22;19501;50.948;5.316;2024-03-02T08:43:17;8.40;99.90
33139;DHT22;19501;50.948;5.316;2024-03-02T08:45:45;8.40;99.90
33139;DHT22;19501;50.948;5.316;2024-03-02T08:48:11;8.50;99.90
33139;DHT22;19501;50.948;5.316;2024-03-02T08:50:38;8.50;99.90
33139;DHT22;19501;50.948;5.316;2024-03-02T08:53:04;8.60;99.90
33139;DHT22;19501;50.948;5.316;2024-03-02T08:55:30;8.60;99.90
33139;DHT22;19501;50.948;5.316;2024-03-02T08:57:56;8.70;99.90
33139;DHT22;19501;50.948;5.316;2024-03-02T09:00:22;8.80;99.90
33139;DHT22;19501;50.948;5.316;2024-03-02T09:02:48;8.80;99.90
33139;DHT22;19501;50.948;5.316;2024-03-02T09:05:14;8.80;99.90
33139;DHT22;19501;50.948;5.316;2024-03-02T09:07:42;8.90;99.90
33139;DHT22;19501;50.948;5.316;2024-03-02T09:10:09;9.00;99.90
33139;DHT22;19501;50.948;5.316;2024-03-02T09:12:35;9.10;99.90
33139;DHT22;19501;50.948;5.316;2024-03-02T09:15:01;9.10;99.90
33139;DHT22;19501;50.948;5.316;2024-03-02T09:17:28;9.20;99.90
33139;DHT22;19501;50.948;5.316;2024-03-02T09:19:54;9.20;99.90
33139;DHT22;19501;50.948;5.316;2024-03-02T09:22:19;9.20;99.90
33139;DHT22;19501;50.948;5.316;2024-03-02T09:24:47;9.20;99.90
33139;DHT22;19501;50.948;5.316;2024-03-02T09:27:13;9.20;99.90
33139;DHT22;19501;50.948;5.316;2024-03-02T09:29:39;9.20;99.90
33139;DHT22;19501;50.948;5.316;2024-03-02T09:32:05;9.20;99.90
33139;DHT22;19501;50.948;5.316;2024-03-02T09:34:31;9.20;99.90
33139;DHT22;19501;50.948;5.316;2024-03-02T09:36:57;9.30;99.90
33139;DHT22;19501;50.948;5.316;2024-03-02T09:39:23;9.30;99.90
33139;DHT22;19501;50.948;5.316;2024-03-02T09:41:50;9.40;99.90
33139;DHT22;19501;50.948;5.316;2024-03-02T09:44:16;9.50;99.90
33139;DHT22;19501;50.948;5.316;2024-03-02T09:46:42;9.60;99.90
33139;DHT22;19501;50.948;5.316;2024-03-02T09:49:10;9.70;99.90
33139;DHT22;19501;50.948;5.316;2024-03-02T09:51:37;9.90;99.90
33139;DHT22;19501;50.948;5.316;2024-03-02T09:54:03;10.10;99.90
33139;DHT22;19501;50.948;5.316;2024-03-02T09:56:29;10.30;99.90
33139;DHT22;19501;50.948;5.316;2024-03-02T09:58:55;10.60;99.90
33139;DHT22;19501;50.948;5.316;2024-03-02T10:01:20;10.70;99.90
33139;DHT22;19501;50.948;5.316;2024-03-02T10:03:47;10.90;99.90
33139;DHT22;19501;50.948;5.316;2024-03-02T10:06:28;10.70;99.90
33139;DHT22;19501;50.948;5.316;2024-03-02T10:08:55;11.00;99.90
33139;DHT22;19501;50.948;5.316;2024-03-02T10:16:39;11.10;99.90
33139;DHT22;19501;50.948;5.316;2024-03-02T10:19:21;11.50;99.90
33139;DHT22;19501;50.948;5.316;2024-03-02T10:21:51;11.70;99.90
33139;DHT22;19501;50.948;5.316;2024-03-02T10:24:18;11.20;99.90
33139;DHT22;19501;50.948;5.316;2024-03-02T10:26:44;11.10;99.90
33139;DHT22;19501;50.948;5.316;2024-03-02T10:29:11;11.30;99.90
33139;DHT22;19501;50.948;5.316;2024-03-02T10:31:44;11.50;99.90
33139;DHT22;19501;50.948;5.316;2024-03-02T10:34:10;11.70;99.90
33139;DHT22;19501;50.948;5.316;2024-03-02T10:36:37;11.60;99.90
33139;DHT22;19501;50.948;5.316;2024-03-02T10:39:07;11.80;99.90
33139;DHT22;19501;50.948;5.316;2024-03-02T10:41:34;11.60;99.90
33139;DHT22;19501;50.948;5.316;2024-03-02T10:44:05;11.80;99.90
33139;DHT22;19501;50.948;5.316;2024-03-02T10:46:32;11.60;99.90
33139;DHT22;19501;50.948;5.316;2024-03-02T10:49:03;11.60;99.90
33139;DHT22;19501;50.948;5.316;2024-03-02T10:51:33;11.60;99.90
33139;DHT22;19501;50.948;5.316;2024-03-02T10:53:59;11.80;99.90
33139;DHT22;19501;50.948;5.316;2024-03-02T10:56:32;12.20;99.90
33139;DHT22;19501;50.948;5.316;2024-03-02T10:59:03;12.30;99.90
33139;DHT22;19501;50.948;5.316;2024-03-02T11:01:32;12.30;99.90
33139;DHT22;19501;50.948;5.316;2024-03-02T11:03:59;12.40;99.90
33139;DHT22;19501;50.948;5.316;2024-03-02T11:06:28;12.20;99.90
33139;DHT22;19501;50.948;5.316;2024-03-02T11:08:55;11.90;99.90
33139;DHT22;19501;50.948;5.316;2024-03-02T11:11:30;12.00;99.90
33139;DHT22;19501;50.948;5.316;2024-03-02T11:14:01;12.20;99.90
33139;DHT22;19501;50.948;5.316;2024-03-02T11:16:35;12.40;99.90
33139;DHT22;19501;50.948;5.316;2024-03-02T11:19:06;12.50;99.90
33139;DHT22;19501;50.948;5.316;2024-03-02T11:21:36;12.50;99.90
33139;DHT22;19501;50.948;5.316;2024-03-02T11:26:50;12.50;99.90
33139;DHT22;19501;50.948;5.316;2024-03-02T11:32:05;12.90;99.90
33139;DHT22;19501;50.948;5.316;2024-03-02T11:34:31;13.20;99.90
33139;DHT22;19501;50.948;5.316;2024-03-02T11:36:57;13.00;99.90
33139;DHT22;19501;50.948;5.316;2024-03-02T11:39:25;12.80;99.90
33139;DHT22;19501;50.948;5.316;2024-03-02T11:41:51;13.00;99.90
33139;DHT22;19501;50.948;5.316;2024-03-02T11:44:20;13.90;99.90
33139;DHT22;19501;50.948;5.316;2024-03-02T11:46:52;14.20;99.90
33139;DHT22;19501;50.948;5.316;2024-03-02T11:52:05;14.30;99.90
33139;DHT22;19501;50.948;5.316;2024-03-02T11:54:33;14.30;99.90
33139;DHT22;19501;50.948;5.316;2024-03-02T11:57:02;14.30;99.90
33139;DHT22;19501;50.948;5.316;2024-03-02T11:59:31;14.70;99.90
33139;DHT22;19501;50.948;5.316;2024-03-02T12:01:58;14.90;99.90
33139;DHT22;19501;50.948;5.316;2024-03-02T12:04:25;14.80;99.90
33139;DHT22;19501;50.948;5.316;2024-03-02T12:07:00;15.30;99.90
33139;DHT22;19501;50.948;5.316;2024-03-02T12:09:29;15.80;99.90
33139;DHT22;19501;50.948;5.316;2024-03-02T12:14:34;16.60;99.90
33139;DHT22;19501;50.948;5.316;2024-03-02T12:17:01;16.30;99.90
33139;DHT22;19501;50.948;5.316;2024-03-02T12:19:27;16.50;99.90
33139;DHT22;19501;50.948;5.316;2024-03-02T12:22:04;17.00;99.90
33139;DHT22;19501;50.948;5.316;2024-03-02T12:24:33;17.10;99.90
33139;DHT22;19501;50.948;5.316;2024-03-02T12:26:59;17.80;99.90
33139;DHT22;19501;50.948;5.316;2024-03-02T12:29:24;17.60;99.90
33139;DHT22;19501;50.948;5.316;2024-03-02T12:31:52;16.90;99.90
33139;DHT22;19501;50.948;5.316;2024-03-02T12:34:18;16.90;99.90
33139;DHT22;19501;50.948;5.316;2024-03-02T12:36:47;17.40;99.90
33139;DHT22;19501;50.948;5.316;2024-03-02T12:39:18;17.90;99.90
33139;DHT22;19501;50.948;5.316;2024-03-02T12:41:50;18.70;99.90
33139;DHT22;19501;50.948;5.316;2024-03-02T12:44:19;18.60;99.90
33139;DHT22;19501;50.948;5.316;2024-03-02T12:46:48;19.40;99.90
33139;DHT22;19501;50.948;5.316;2024-03-02T12:49:15;19.30;99.90
33139;DHT22;19501;50.948;5.316;2024-03-02T12:51:46;20.20;99.90
33139;DHT22;19501;50.948;5.316;2024-03-02T12:54:17;19.40;99.90
33139;DHT22;19501;50.948;5.316;2024-03-02T12:56:43;19.60;99.90
33139;DHT22;19501;50.948;5.316;2024-03-02T12:59:19;18.90;99.90
33139;DHT22;19501;50.948;5.316;2024-03-02T13:01:55;16.90;99.90
33139;DHT22;19501;50.948;5.316;2024-03-02T13:04:24;16.30;99.90
33139;DHT22;19501;50.948;5.316;2024-03-02T13:06:52;16.00;99.90
33139;DHT22;19501;50.948;5.316;2024-03-02T13:09:18;15.60;99.90
33139;DHT22;19501;50.948;5.316;2024-03-02T13:11:44;15.80;99.90
33139;DHT22;19501;50.948;5.316;2024-03-02T13:14:13;16.00;99.90
33139;DHT22;19501;50.948;5.316;2024-03-02T13:16:42;16.20;99.90
33139;DHT22;19501;50.948;5.316;2024-03-02T13:19:09;16.20;99.90
33139;DHT22;19501;50.948;5.316;2024-03-02T13:21:35;16.30;99.90
33139;DHT22;19501;50.948;5.316;2024-03-02T13:24:01;16.00;99.90
33139;DHT22;19501;50.948;5.316;2024-03-02T13:26:27;16.50;99.90
33139;DHT22;19501;50.948;5.316;2024-03-02T13:28:53;16.30;99.90
33139;DHT22;19501;50.948;5.316;2024-03-02T13:31:18;16.40;99.90
33139;DHT22;19501;50.948;5.316;2024-03-02T13:33:44;16.50;99.90
33139;DHT22;19501;50.948;5.316;2024-03-02T13:36:12;17.20;99.90
33139;DHT22;19501;50.948;5.316;2024-03-02T13:38:38;18.40;99.90
33139;DHT22;19501;50.948;5.316;2024-03-02T13:41:04;19.00;99.90
33139;DHT22;19501;50.948;5.316;2024-03-02T13:43:32;19.10;99.90
33139;DHT22;19501;50.948;5.316;2024-03-02T13:45:58;18.80;99.90
33139;DHT22;19501;50.948;5.316;2024-03-02T13:48:24;18.80;99.90
33139;DHT22;19501;50.948;5.316;2024-03-02T13:50:53;18.30;99.90
33139;DHT22;19501;50.948;5.316;2024-03-02T13:53:19;18.00;99.90
33139;DHT22;19501;50.948;5.316;2024-03-02T13:55:45;17.60;99.90
33139;DHT22;19501;50.948;5.316;2024-03-02T13:58:11;17.30;99.90
33139;DHT22;19501;50.948;5.316;2024-03-02T14:00:37;16.40;99.90
33139;DHT22;19501;50.948;5.316;2024-03-02T14:03:07;16.60;99.90
33139;DHT22;19501;50.948;5.316;2024-03-02T14:05:33;16.70;99.90
33139;DHT22;19501;50.948;5.316;2024-03-02T14:07:59;16.80;99.90
33139;DHT22;19501;50.948;5.316;2024-03-02T14:10:26;16.70;99.90
33139;DHT22;19501;50.948;5.316;2024-03-02T14:12:52;17.00;99.90
33139;DHT22;19501;50.948;5.316;2024-03-02T14:15:20;17.50;99.90
33139;DHT22;19501;50.948;5.316;2024-03-02T14:17:46;19.20;99.90
33139;DHT22;19501;50.948;5.316;2024-03-02T14:20:12;18.90;99.90
33139;DHT22;19501;50.948;5.316;2024-03-02T14:22:39;18.00;99.90
33139;DHT22;19501;50.948;5.316;2024-03-02T14:25:05;17.70;99.90
33139;DHT22;19501;50.948;5.316;2024-03-02T14:27:31;17.30;99.90
33139;DHT22;19501;50.948;5.316;2024-03-02T14:29:56;17.30;99.90
33139;DHT22;19501;50.948;5.316;2024-03-02T14:32:22;17.30;99.90
33139;DHT22;19501;50.948;5.316;2024-03-02T14:34:48;17.20;99.90
33139;DHT22;19501;50.948;5.316;2024-03-02T14:37:15;17.00;99.90
33139;DHT22;19501;50.948;5.316;2024-03-02T14:39:41;17.20;99.90
33139;DHT22;19501;50.948;5.316;2024-03-02T14:42:06;16.90;99.90
33139;DHT22;19501;50.948;5.316;2024-03-02T14:44:33;17.00;99.90
33139;DHT22;19501;50.948;5.316;2024-03-02T14:47:03;16.80;99.90
33139;DHT22;19501;50.948;5.316;2024-03-02T14:49:32;16.30;99.90
33139;DHT22;19501;50.948;5.316;2024-03-02T14:51:59;16.30;99.90
33139;DHT22;19501;50.948;5.316;2024-03-02T14:54:24;15.80;99.90
33139;DHT22;19501;50.948;5.316;2024-03-02T14:56:50;15.50;99.90
33139;DHT22;19501;50.948;5.316;2024-03-02T14:59:17;15.80;99.90
33139;DHT22;19501;50.948;5.316;2024-03-02T15:01:43;16.40;99.90
33139;DHT22;19501;50.948;5.316;2024-03-02T15:04:09;17.30;99.90
33139;DHT22;19501;50.948;5.316;2024-03-02T15:06:35;17.50;99.90
33139;DHT22;19501;50.948;5.316;2024-03-02T15:09:01;17.00;99.90
33139;DHT22;19501;50.948;5.316;2024-03-02T15:11:27;16.70;99.90
33139;DHT22;19501;50.948;5.316;2024-03-02T15:13:53;16.40;99.90
33139;DHT22;19501;50.948;5.316;2024-03-02T15:16:19;16.20;99.90
33139;DHT22;19501;50.948;5.316;2024-03-02T15:18:45;15.80;99.90
33139;DHT22;19501;50.948;5.316;2024-03-02T15:21:11;15.60;99.90
33139;DHT22;19501;50.948;5.316;2024-03-02T15:23:37;15.50;99.90
33139;DHT22;19501;50.948;5.316;2024-03-02T15:26:02;15.40;99.90
33139;DHT22;19501;50.948;5.316;2024-03-02T15:28:28;15.30;99.90
33139;DHT22;19501;50.948;5.316;2024-03-02T15:30:54;15.20;99.90
33139;DHT22;19501;50.948;5.316;2024-03-02T15:33:20;15.30;99.90
33139;DHT22;19501;50.948;5.316;2024-03-02T15:35:46;15.30;99.90
33139;DHT22;19501;50.948;5.316;2024-03-02T15:38:14;15.40;99.90
33139;DHT22;19501;50.948;5.316;2024-03-02T15:40:42;15.30;99.90
33139;DHT22;19501;50.948;5.316;2024-03-02T15:43:10;15.30;99.90
33139;DHT22;19501;50.948;5.316;2024-03-02T15:45:35;15.50;99.90
33139;DHT22;19501;50.948;5.316;2024-03-02T15:48:01;15.60;99.90
33139;DHT22;19501;50.948;5.316;2024-03-02T15:50:29;15.80;99.90
33139;DHT22;19501;50.948;5.316;2024-03-02T15:52:55;15.80;99.90
33139;DHT22;19501;50.948;5.316;2024-03-02T15:55:28;15.70;99.90
33139;DHT22;19501;50.948;5.316;2024-03-02T15:57:53;15.80;99.90
33139;DHT22;19501;50.948;5.316;2024-03-02T16:00:19;15.70;99.90
33139;DHT22;19501;50.948;5.316;2024-03-02T16:02:45;15.70;99.90